sensor_id;sensor_type;location;lat;lon;timestamp;temperature;humidity
27900;DHT22;15243;50.726;7.080;2022-07-06T00:00:16;16.30;99.90
27900;DHT22;15243;50.726;7.080;2022-07-06T00:02:43;16.30;99.90
27900;DHT22;15243;50.726;7.080;2022-07-06T00:05:10;16.30;99.90
27900;DHT22;15243;50.726;7.080;2022-07-06T00:07:37;16.20;99.90
27900;DHT22;15243;50.726;7.080;2022-07-06T00:10:04;16.20;99.90
27900;DHT22;15243;50.726;7.080;2022-07-06T00:12:31;16.20;99.90
27900;DHT22;15243;50.726;7.080;2022-07-06T00:14:58;16.00;99.90
27900;DHT22;15243;50.726;7.080;2022-07-06T00:17:25;16.10;99.90
27900;DHT22;15243;50.726;7.080;2022-07-06T00:19:52;16.00;99.90
27900;DHT22;15243;50.726;7.080;2022-07-06T00:22:19;16.00;99.90
27900;DHT22;15243;50.726;7.080;2022-07-06T00:24:46;16.00;99.90
27900;DHT22;15243;50.726;7.080;2022-07-06T00:27:12;15.90;99.90
27900;DHT22;15243;50.726;7.080;2022-07-06T00:29:39;15.90;99.90
27900;DHT22;15243;50.726;7.080;2022-07-06T00:32:13;15.70;99.90
27900;DHT22;15243;50.726;7.080;2022-07-06T00:34:40;15.70;99.90
27900;DHT22;15243;50.726;7.080;2022-07-06T00:37:07;15.80;99.90
27900;DHT22;15243;50.726;7.080;2022-07-06T00:39:34;15.60;99.90
27900;DHT22;15243;50.726;7.080;2022-07-06T00:42:01;15.50;99.90
27900;DHT22;15243;50.726;7.080;2022-07-06T00:44:28;15.40;99.90
27900;DHT22;15243;50.726;7.080;2022-07-06T00:46:55;15.20;99.90
27900;DHT22;15243;50.726;7.080;2022-07-06T00:49:22;15.20;99.90
27900;DHT22;15243;50.726;7.080;2022-07-06T00:52:08;15.20;99.90
27900;DHT22;15243;50.726;7.080;2022-07-06T00:54:36;15.10;99.90
27900;DHT22;15243;50.726;7.080;2022-07-06T00:57:03;15.10;99.90
27900;DHT22;15243;50.726;7.080;2022-07-06T00:59:30;15.00;99.90
27900;DHT22;15243;50.726;7.080;2022-07-06T01:01:57;15.00;99.90
27900;DHT22;15243;50.726;7.080;2022-07-06T01:04:25;14.90;99.90
27900;DHT22;15243;50.726;7.080;2022-07-06T01:06:52;14.80;99.90
27900;DHT22;15243;50.726;7.080;2022-07-06T01:09:20;14.80;99.90
27900;DHT22;15243;50.726;7.080;2022-07-06T01:11:47;14.80;99.90
27900;DHT22;15243;50.726;7.080;2022-07-06T01:14:15;14.70;99.90
27900;DHT22;15243;50.726;7.080;2022-07-06T01:16:43;14.70;99.90
27900;DHT22;15243;50.726;7.080;2022-07-06T01:19:10;14.60;99.90
27900;DHT22;15243;50.726;7.080;2022-07-06T01:21:40;14.50;99.90
27900;DHT22;15243;50.726;7.080;2022-07-06T01:24:08;14.30;99.90
27900;DHT22;15243;50.726;7.080;2022-07-06T01:26:35;14.30;99.90
27900;DHT22;15243;50.726;7.080;2022-07-06T01:29:02;14.30;99.90
27900;DHT22;15243;50.726;7.080;2022-07-06T01:31:29;14.20;99.90
27900;DHT22;15243;50.726;7.080;2022-07-06T01:33:57;14.10;99.90
27900;DHT22;15243;50.726;7.080;2022-07-06T01:36:24;14.10;99.90
27900;DHT22;15243;50.726;7.080;2022-07-06T01:38:52;14.00;99.90
27900;DHT22;15243;50.726;7.080;2022-07-06T01:41:20;14.00;99.90
27900;DHT22;15243;50.726;7.080;2022-07-06T01:43:47;13.90;99.90
27900;DHT22;15243;50.726;7.080;2022-07-06T01:46:15;13.80;99.90
27900;DHT22;15243;50.726;7.080;2022-07-06T01:48:42;13.80;99.90
27900;DHT22;15243;50.726;7.080;2022-07-06T01:51:10;13.70;99.90
27900;DHT22;15243;50.726;7.080;2022-07-06T01:53:38;13.70;99.90
27900;DHT22;15243;50.726;7.080;2022-07-06T01:56:06;13.80;99.90
27900;DHT22;15243;50.726;7.080;2022-07-06T01:58:33;13.80;99.90
27900;DHT22;15243;50.726;7.080;2022-07-06T02:01:01;13.60;99.90
27900;DHT22;15243;50.726;7.080;2022-07-06T02:03:32;13.60;99.90
27900;DHT22;15243;50.726;7.080;2022-07-06T02:05:59;13.50;99.90
27900;DHT22;15243;50.726;7.080;2022-07-06T02:08:27;13.50;99.90
27900;DHT22;15243;50.726;7.080;2022-07-06T02:10:54;13.40;99.90
27900;DHT22;15243;50.726;7.080;2022-07-06T02:13:21;13.30;99.90
27900;DHT22;15243;50.726;7.080;2022-07-06T02:15:47;13.40;99.90
27900;DHT22;15243;50.726;7.080;2022-07-06T02:18:14;13.40;99.90
27900;DHT22;15243;50.726;7.080;2022-07-06T02:20:42;13.30;99.90
27900;DHT22;15243;50.726;7.080;2022-07-06T02:23:09;13.20;99.90
27900;DHT22;15243;50.726;7.080;2022-07-06T02:25:36;13.20;99.90
27900;DHT22;15243;50.726;7.080;2022-07-06T02:28:03;13.20;99.90
27900;DHT22;15243;50.726;7.080;2022-07-06T02:30:30;13.20;99.90
27900;DHT22;15243;50.726;7.080;2022-07-06T02:32:58;13.10;99.90
27900;DHT22;15243;50.726;7.080;2022-07-06T02:35:25;13.10;99.90
27900;DHT22;15243;50.726;7.080;2022-07-06T02:37:52;13.10;99.90
27900;DHT22;15243;50.726;7.080;2022-07-06T02:40:19;13.10;99.90
27900;DHT22;15243;50.726;7.080;2022-07-06T02:42:46;13.10;99.90
27900;DHT22;15243;50.726;7.080;2022-07-06T02:45:13;13.10;99.90
27900;DHT22;15243;50.726;7.080;2022-07-06T02:47:39;13.00;99.90
27900;DHT22;15243;50.726;7.080;2022-07-06T02:50:07;13.00;99.90
27900;DHT22;15243;50.726;7.080;2022-07-06T02:52:34;12.90;99.90
27900;DHT22;15243;50.726;7.080;2022-07-06T02:55:07;12.90;99.90
27900;DHT22;15243;50.726;7.080;2022-07-06T02:57:33;12.90;99.90
27900;DHT22;15243;50.726;7.080;2022-07-06T03:00:00;13.10;99.90
27900;DHT22;15243;50.726;7.080;2022-07-06T03:02:27;13.10;99.90
27900;DHT22;15243;50.726;7.080;2022-07-06T03:04:54;13.00;99.90
27900;DHT22;15243;50.726;7.080;2022-07-06T03:07:23;12.90;99.90
27900;DHT22;15243;50.726;7.080;2022-07-06T03:09:50;12.80;99.90
27900;DHT22;15243;50.726;7.080;2022-07-06T03:12:17;12.80;99.90
27900;DHT22;15243;50.726;7.080;2022-07-06T03:14:44;12.80;99.90
27900;DHT22;15243;50.726;7.080;2022-07-06T03:17:11;12.80;99.90
27900;DHT22;15243;50.726;7.080;2022-07-06T03:19:38;12.70;99.90
27900;DHT22;15243;50.726;7.080;2022-07-06T03:22:05;12.80;99.90
27900;DHT22;15243;50.726;7.080;2022-07-06T03:24:32;12.80;99.90
27900;DHT22;15243;50.726;7.080;2022-07-06T03:26:59;12.70;99.90
27900;DHT22;15243;50.726;7.080;2022-07-06T03:29:26;12.70;99.90
27900;DHT22;15243;50.726;7.080;2022-07-06T03:31:52;12.70;99.90
27900;DHT22;15243;50.726;7.080;2022-07-06T03:34:19;12.60;99.90
27900;DHT22;15243;50.726;7.080;2022-07-06T03:36:46;12.60;99.90
27900;DHT22;15243;50.726;7.080;2022-07-06T03:39:13;12.50;99.90
27900;DHT22;15243;50.726;7.080;2022-07-06T03:41:40;12.50;99.90
27900;DHT22;15243;50.726;7.080;2022-07-06T03:44:07;12.40;99.90
27900;DHT22;15243;50.726;7.080;2022-07-06T03:46:34;12.40;99.90
27900;DHT22;15243;50.726;7.080;2022-07-06T03:49:01;12.40;99.90
27900;DHT22;15243;50.726;7.080;2022-07-06T03:51:28;12.30;99.90
27900;DHT22;15243;50.726;7.080;2022-07-06T03:53:55;12.20;99.90
27900;DHT22;15243;50.726;7.080;2022-07-06T03:56:21;12.20;99.90
27900;DHT22;15243;50.726;7.080;2022-07-06T03:58:59;12.10;99.90
27900;DHT22;15243;50.726;7.080;2022-07-06T04:01:27;12.20;99.90
27900;DHT22;15243;50.726;7.080;2022-07-06T04:03:54;12.30;99.90
27900;DHT22;15243;50.726;7.080;2022-07-06T04:06:22;12.20;99.90
27900;DHT22;15243;50.726;7.080;2022-07-06T04:08:49;12.20;99.90
27900;DHT22;15243;50.726;7.080;2022-07-06T04:11:16;12.20;99.90
27900;DHT22;15243;50.726;7.080;2022-07-06T04:13:43;12.20;99.90
27900;DHT22;15243;50.726;7.080;2022-07-06T04:16:09;12.20;99.90
27900;DHT22;15243;50.726;7.080;2022-07-06T04:18:36;12.20;99.90
27900;DHT22;15243;50.726;7.080;2022-07-06T04:21:04;12.30;99.90
27900;DHT22;15243;50.726;7.080;2022-07-06T04:23:31;12.30;99.90
27900;DHT22;15243;50.726;7.080;2022-07-06T04:25:58;12.30;99.90
27900;DHT22;15243;50.726;7.080;2022-07-06T04:28:25;12.40;99.90
27900;DHT22;15243;50.726;7.080;2022-07-06T04:30:52;12.50;99.90
27900;DHT22;15243;50.726;7.080;2022-07-06T04:33:19;12.50;99.90
27900;DHT22;15243;50.726;7.080;2022-07-06T04:35:46;12.50;99.90
27900;DHT22;15243;50.726;7.080;2022-07-06T04:38:13;12.50;99.90
27900;DHT22;15243;50.726;7.080;2022-07-06T04:40:40;12.50;99.90
27900;DHT22;15243;50.726;7.080;2022-07-06T04:43:07;12.60;99.90
27900;DHT22;15243;50.726;7.080;2022-07-06T04:45:34;12.60;99.90
27900;DHT22;15243;50.726;7.080;2022-07-06T04:48:01;12.70;99.90
27900;DHT22;15243;50.726;7.080;2022-07-06T04:50:28;12.80;99.90
27900;DHT22;15243;50.726;7.080;2022-07-06T04:52:55;12.90;99.90
27900;DHT22;15243;50.726;7.080;2022-07-06T04:55:22;12.90;99.90
27900;DHT22;15243;50.726;7.080;2022-07-06T04:57:49;12.90;99.90
27900;DHT22;15243;50.726;7.080;2022-07-06T05:00:18;13.00;99.90
27900;DHT22;15243;50.726;7.080;2022-07-06T05:02:45;13.00;99.90
27900;DHT22;15243;50.726;7.080;2022-07-06T05:05:12;13.10;99.90
27900;DHT22;15243;50.726;7.080;2022-07-06T05:07:38;13.30;99.90
27900;DHT22;15243;50.726;7.080;2022-07-06T05:10:09;13.20;99.90
27900;DHT22;15243;50.726;7.080;2022-07-06T05:12:37;13.20;99.90
27900;DHT22;15243;50.726;7.080;2022-07-06T05:15:05;13.40;99.90
27900;DHT22;15243;50.726;7.080;2022-07-06T05:17:32;13.50;99.90
27900;DHT22;15243;50.726;7.080;2022-07-06T05:19:59;13.60;99.90
27900;DHT22;15243;50.726;7.080;2022-07-06T05:22:27;13.70;99.90
27900;DHT22;15243;50.726;7.080;2022-07-06T05:24:53;13.70;99.90
27900;DHT22;15243;50.726;7.080;2022-07-06T05:27:20;13.70;99.90
27900;DHT22;15243;50.726;7.080;2022-07-06T05:29:47;13.70;99.90
27900;DHT22;15243;50.726;7.080;2022-07-06T05:32:14;13.80;99.90
27900;DHT22;15243;50.726;7.080;2022-07-06T05:34:41;13.80;99.90
27900;DHT22;15243;50.726;7.080;2022-07-06T05:37:08;13.70;99.90
27900;DHT22;15243;50.726;7.080;2022-07-06T05:39:35;13.60;99.90
27900;DHT22;15243;50.726;7.080;2022-07-06T05:42:08;13.60;99.90
27900;DHT22;15243;50.726;7.080;2022-07-06T05:44:35;13.70;99.90
27900;DHT22;15243;50.726;7.080;2022-07-06T05:47:02;13.90;99.90
27900;DHT22;15243;50.726;7.080;2022-07-06T05:49:47;13.80;99.90
27900;DHT22;15243;50.726;7.080;2022-07-06T05:52:33;13.90;99.90
27900;DHT22;15243;50.726;7.080;2022-07-06T05:55:00;13.90;99.90
27900;DHT22;15243;50.726;7.080;2022-07-06T05:57:27;13.90;99.90
27900;DHT22;15243;50.726;7.080;2022-07-06T05:59:54;14.00;99.90
27900;DHT22;15243;50.726;7.080;2022-07-06T06:02:21;14.00;99.90
27900;DHT22;15243;50.726;7.080;2022-07-06T06:04:48;14.10;99.90
27900;DHT22;15243;50.726;7.080;2022-07-06T06:07:15;13.90;99.90
27900;DHT22;15243;50.726;7.080;2022-07-06T06:09:42;13.90;99.90
27900;DHT22;15243;50.726;7.080;2022-07-06T06:12:09;14.10;99.90
27900;DHT22;15243;50.726;7.080;2022-07-06T06:14:36;14.20;99.90
27900;DHT22;15243;50.726;7.080;2022-07-06T06:17:03;14.20;99.90
27900;DHT22;15243;50.726;7.080;2022-07-06T06:19:35;14.30;99.90
27900;DHT22;15243;50.726;7.080;2022-07-06T06:22:03;14.70;99.90
27900;DHT22;15243;50.726;7.080;2022-07-06T06:24:30;15.00;99.90
27900;DHT22;15243;50.726;7.080;2022-07-06T06:26:57;14.90;99.90
27900;DHT22;15243;50.726;7.080;2022-07-06T06:29:25;14.90;99.90
27900;DHT22;15243;50.726;7.080;2022-07-06T06:31:52;14.70;99.90
27900;DHT22;15243;50.726;7.080;2022-07-06T06:34:19;14.80;99.90
27900;DHT22;15243;50.726;7.080;2022-07-06T06:36:46;14.70;99.90
27900;DHT22;15243;50.726;7.080;2022-07-06T06:39:13;14.60;99.90
27900;DHT22;15243;50.726;7.080;2022-07-06T06:41:40;14.70;99.90
27900;DHT22;15243;50.726;7.080;2022-07-06T06:44:07;14.90;99.90
27900;DHT22;15243;50.726;7.080;2022-07-06T06:46:34;14.80;99.90
27900;DHT22;15243;50.726;7.080;2022-07-06T06:49:01;14.70;99.90
27900;DHT22;15243;50.726;7.080;2022-07-06T06:51:28;14.70;99.90
27900;DHT22;15243;50.726;7.080;2022-07-06T06:53:55;15.10;99.90
27900;DHT22;15243;50.726;7.080;2022-07-06T06:56:22;15.20;99.90
27900;DHT22;15243;50.726;7.080;2022-07-06T06:58:49;15.30;99.90
27900;DHT22;15243;50.726;7.080;2022-07-06T07:01:36;15.40;99.90
27900;DHT22;15243;50.726;7.080;2022-07-06T07:04:03;15.50;99.90
27900;DHT22;15243;50.726;7.080;2022-07-06T07:06:30;15.60;99.90
27900;DHT22;15243;50.726;7.080;2022-07-06T07:08:57;15.70;99.90
27900;DHT22;15243;50.726;7.080;2022-07-06T07:11:23;15.60;99.90
27900;DHT22;15243;50.726;7.080;2022-07-06T07:13:50;15.70;99.90
27900;DHT22;15243;50.726;7.080;2022-07-06T07:16:17;16.00;99.90
27900;DHT22;15243;50.726;7.080;2022-07-06T07:18:44;15.70;99.90
27900;DHT22;15243;50.726;7.080;2022-07-06T07:21:11;16.00;99.90
27900;DHT22;15243;50.726;7.080;2022-07-06T07:23:38;16.10;99.90
27900;DHT22;15243;50.726;7.080;2022-07-06T07:26:05;16.20;99.90
27900;DHT22;15243;50.726;7.080;2022-07-06T07:28:33;16.40;99.90
27900;DHT22;15243;50.726;7.080;2022-07-06T07:31:00;16.30;99.90
27900;DHT22;15243;50.726;7.080;2022-07-06T07:33:27;16.40;99.90
27900;DHT22;15243;50.726;7.080;2022-07-06T07:35:54;16.20;99.90
27900;DHT22;15243;50.726;7.080;2022-07-06T07:38:21;16.40;99.90
27900;DHT22;15243;50.726;7.080;2022-07-06T07:40:49;16.10;99.90
27900;DHT22;15243;50.726;7.080;2022-07-06T07:43:15;16.00;99.90
27900;DHT22;15243;50.726;7.080;2022-07-06T07:45:42;15.90;99.90
27900;DHT22;15243;50.726;7.080;2022-07-06T07:48:09;15.80;99.90
27900;DHT22;15243;50.726;7.080;2022-07-06T07:50:36;15.70;99.90
27900;DHT22;15243;50.726;7.080;2022-07-06T07:53:03;16.00;99.90
27900;DHT22;15243;50.726;7.080;2022-07-06T07:55:30;16.50;99.90
27900;DHT22;15243;50.726;7.080;2022-07-06T07:58:12;16.80;99.90
27900;DHT22;15243;50.726;7.080;2022-07-06T08:00:39;16.90;99.90
27900;DHT22;15243;50.726;7.080;2022-07-06T08:03:06;16.80;99.90
27900;DHT22;15243;50.726;7.080;2022-07-06T08:05:33;16.50;99.90
27900;DHT22;15243;50.726;7.080;2022-07-06T08:08:00;16.00;99.90
27900;DHT22;15243;50.726;7.080;2022-07-06T08:10:27;16.00;99.90
27900;DHT22;15243;50.726;7.080;2022-07-06T08:12:53;16.10;99.90
27900;DHT22;15243;50.726;7.080;2022-07-06T08:15:21;16.00;99.90
27900;DHT22;15243;50.726;7.080;2022-07-06T08:17:47;15.90;99.90
27900;DHT22;15243;50.726;7.080;2022-07-06T08:20:15;16.10;99.90
27900;DHT22;15243;50.726;7.080;2022-07-06T08:22:42;16.00;99.90
27900;DHT22;15243;50.726;7.080;2022-07-06T08:25:09;16.20;99.90
27900;DHT22;15243;50.726;7.080;2022-07-06T08:27:37;16.30;99.90
27900;DHT22;15243;50.726;7.080;2022-07-06T08:30:04;16.40;99.90
27900;DHT22;15243;50.726;7.080;2022-07-06T08:32:31;16.30;99.90
27900;DHT22;15243;50.726;7.080;2022-07-06T08:35:18;16.60;99.90
27900;DHT22;15243;50.726;7.080;2022-07-06T08:37:45;17.00;99.90
27900;DHT22;15243;50.726;7.080;2022-07-06T08:40:13;17.30;99.90
27900;DHT22;15243;50.726;7.080;2022-07-06T08:42:42;18.00;99.90
27900;DHT22;15243;50.726;7.080;2022-07-06T08:45:11;18.10;99.90
27900;DHT22;15243;50.726;7.080;2022-07-06T08:47:41;17.90;99.90
27900;DHT22;15243;50.726;7.080;2022-07-06T08:50:09;17.90;99.90
27900;DHT22;15243;50.726;7.080;2022-07-06T08:52:37;18.00;99.90
27900;DHT22;15243;50.726;7.080;2022-07-06T08:55:05;18.00;99.90
27900;DHT22;15243;50.726;7.080;2022-07-06T08:57:35;17.60;99.90
27900;DHT22;15243;50.726;7.080;2022-07-06T09:00:02;17.50;99.90
27900;DHT22;15243;50.726;7.080;2022-07-06T09:02:29;17.40;99.90
27900;DHT22;15243;50.726;7.080;2022-07-06T09:04:57;17.50;99.90
27900;DHT22;15243;50.726;7.080;2022-07-06T09:07:27;17.30;99.90
27900;DHT22;15243;50.726;7.080;2022-07-06T09:10:17;17.20;99.90
27900;DHT22;15243;50.726;7.080;2022-07-06T09:12:45;17.20;99.90
27900;DHT22;15243;50.726;7.080;2022-07-06T09:15:12;17.20;99.90
27900;DHT22;15243;50.726;7.080;2022-07-06T09:17:40;17.30;99.90
27900;DHT22;15243;50.726;7.080;2022-07-06T09:20:12;17.40;99.90
27900;DHT22;15243;50.726;7.080;2022-07-06T09:22:39;17.00;99.90
27900;DHT22;15243;50.726;7.080;2022-07-06T09:25:11;17.20;99.90
27900;DHT22;15243;50.726;7.080;2022-07-06T09:27:40;17.30;99.90
27900;DHT22;15243;50.726;7.080;2022-07-06T09:30:09;17.10;99.90
27900;DHT22;15243;50.726;7.080;2022-07-06T09:32:48;17.20;99.90
27900;DHT22;15243;50.726;7.080;2022-07-06T09:35:25;17.30;99.90
27900;DHT22;15243;50.726;7.080;2022-07-06T09:40:27;17.40;99.90
27900;DHT22;15243;50.726;7.080;2022-07-06T09:43:10;17.20;99.90
27900;DHT22;15243;50.726;7.080;2022-07-06T09:45:38;17.30;99.90
27900;DHT22;15243;50.726;7.080;2022-07-06T09:48:13;17.30;99.90
27900;DHT22;15243;50.726;7.080;2022-07-06T09:50:46;17.20;99.90
27900;DHT22;15243;50.726;7.080;2022-07-06T09:53:15;17.30;99.90
27900;DHT22;15243;50.726;7.080;2022-07-06T09:55:46;17.30;99.90
27900;DHT22;15243;50.726;7.080;2022-07-06T09:58:14;17.40;99.90
27900;DHT22;15243;50.726;7.080;2022-07-06T10:00:44;17.20;99.90
27900;DHT22;15243;50.726;7.080;2022-07-06T10:03:12;17.00;99.90
27900;DHT22;15243;50.726;7.080;2022-07-06T10:05:42;17.20;99.90
27900;DHT22;15243;50.726;7.080;2022-07-06T10:08:10;17.60;99.90
27900;DHT22;15243;50.726;7.080;2022-07-06T10:10:39;17.90;99.90
27900;DHT22;15243;50.726;7.080;2022-07-06T10:13:07;18.10;99.90
27900;DHT22;15243;50.726;7.080;2022-07-06T10:15:39;17.70;99.90
27900;DHT22;15243;50.726;7.080;2022-07-06T10:18:08;17.60;99.90
27900;DHT22;15243;50.726;7.080;2022-07-06T10:20:38;18.00;99.90
27900;DHT22;15243;50.726;7.080;2022-07-06T10:23:07;17.80;99.90
27900;DHT22;15243;50.726;7.080;2022-07-06T10:25:34;17.60;99.90
27900;DHT22;15243;50.726;7.080;2022-07-06T10:28:02;17.70;99.90
27900;DHT22;15243;50.726;7.080;2022-07-06T10:30:30;17.90;99.90
27900;DHT22;15243;50.726;7.080;2022-07-06T10:32:58;18.10;99.90
27900;DHT22;15243;50.726;7.080;2022-07-06T10:35:26;18.20;99.90
27900;DHT22;15243;50.726;7.080;2022-07-06T10:38:07;17.60;99.90
27900;DHT22;15243;50.726;7.080;2022-07-06T10:40:35;18.00;99.90
27900;DHT22;15243;50.726;7.080;2022-07-06T10:43:21;18.10;99.90
27900;DHT22;15243;50.726;7.080;2022-07-06T10:48:19;18.60;99.90
27900;DHT22;15243;50.726;7.080;2022-07-06T10:53:31;18.90;99.90
27900;DHT22;15243;50.726;7.080;2022-07-06T10:56:03;18.90;99.90
27900;DHT22;15243;50.726;7.080;2022-07-06T10:58:50;19.00;99.90
27900;DHT22;15243;50.726;7.080;2022-07-06T11:01:19;18.60;99.90
27900;DHT22;15243;50.726;7.080;2022-07-06T11:06:26;18.90;99.90
27900;DHT22;15243;50.726;7.080;2022-07-06T11:09:00;18.80;99.90
27900;DHT22;15243;50.726;7.080;2022-07-06T11:14:01;18.50;99.90
27900;DHT22;15243;50.726;7.080;2022-07-06T11:16:30;18.80;99.90
27900;DHT22;15243;50.726;7.080;2022-07-06T11:19:26;19.10;99.90
27900;DHT22;15243;50.726;7.080;2022-07-06T11:22:08;19.40;99.90
27900;DHT22;15243;50.726;7.080;2022-07-06T11:24:37;19.60;99.90
27900;DHT22;15243;50.726;7.080;2022-07-06T11:27:05;20.00;99.90
27900;DHT22;15243;50.726;7.080;2022-07-06T11:29:33;20.00;99.90
27900;DHT22;15243;50.726;7.080;2022-07-06T11:32:01;20.00;99.90
27900;DHT22;15243;50.726;7.080;2022-07-06T11:34:33;19.90;99.90
27900;DHT22;15243;50.726;7.080;2022-07-06T11:37:06;19.70;99.90
27900;DHT22;15243;50.726;7.080;2022-07-06T11:39:40;19.90;99.90
27900;DHT22;15243;50.726;7.080;2022-07-06T11:42:09;20.30;99.90
27900;DHT22;15243;50.726;7.080;2022-07-06T11:44:37;20.10;99.90
27900;DHT22;15243;50.726;7.080;2022-07-06T11:47:05;20.10;99.90
27900;DHT22;15243;50.726;7.080;2022-07-06T11:49:34;20.10;99.90
27900;DHT22;15243;50.726;7.080;2022-07-06T11:52:12;20.10;99.90
27900;DHT22;15243;50.726;7.080;2022-07-06T11:54:40;20.40;99.90
27900;DHT22;15243;50.726;7.080;2022-07-06T11:57:08;19.90;99.90
27900;DHT22;15243;50.726;7.080;2022-07-06T11:59:38;19.40;99.90
27900;DHT22;15243;50.726;7.080;2022-07-06T12:02:06;19.00;99.90
27900;DHT22;15243;50.726;7.080;2022-07-06T12:04:36;19.40;99.90
27900;DHT22;15243;50.726;7.080;2022-07-06T12:07:06;19.60;99.90
27900;DHT22;15243;50.726;7.080;2022-07-06T12:09:35;20.00;99.90
27900;DHT22;15243;50.726;7.080;2022-07-06T12:12:04;19.60;99.90
27900;DHT22;15243;50.726;7.080;2022-07-06T12:14:33;19.40;99.90
27900;DHT22;15243;50.726;7.080;2022-07-06T12:17:05;19.70;99.90
27900;DHT22;15243;50.726;7.080;2022-07-06T12:19:33;19.70;99.90
27900;DHT22;15243;50.726;7.080;2022-07-06T12:22:01;20.10;99.90
27900;DHT22;15243;50.726;7.080;2022-07-06T12:24:30;20.60;99.90
27900;DHT22;15243;50.726;7.080;2022-07-06T12:27:10;20.90;99.90
27900;DHT22;15243;50.726;7.080;2022-07-06T12:29:37;20.80;99.90
27900;DHT22;15243;50.726;7.080;2022-07-06T12:32:05;20.20;99.90
27900;DHT22;15243;50.726;7.080;2022-07-06T12:34:32;20.30;99.90
27900;DHT22;15243;50.726;7.080;2022-07-06T12:37:07;19.90;99.90
27900;DHT22;15243;50.726;7.080;2022-07-06T12:39:45;19.50;99.90
27900;DHT22;15243;50.726;7.080;2022-07-06T12:42:17;19.40;99.90
27900;DHT22;15243;50.726;7.080;2022-07-06T12:44:52;19.50;99.90
27900;DHT22;15243;50.726;7.080;2022-07-06T12:47:21;19.80;99.90
27900;DHT22;15243;50.726;7.080;2022-07-06T12:50:07;20.00;99.90
27900;DHT22;15243;50.726;7.080;2022-07-06T12:52:35;19.90;99.90
27900;DHT22;15243;50.726;7.080;2022-07-06T12:55:06;19.80;99.90
27900;DHT22;15243;50.726;7.080;2022-07-06T12:57:45;19.60;99.90
27900;DHT22;15243;50.726;7.080;2022-07-06T13:00:13;19.40;99.90
27900;DHT22;15243;50.726;7.080;2022-07-06T13:02:43;19.80;99.90
27900;DHT22;15243;50.726;7.080;2022-07-06T13:05:30;20.30;99.90
27900;DHT22;15243;50.726;7.080;2022-07-06T13:07:58;19.80;99.90
27900;DHT22;15243;50.726;7.080;2022-07-06T13:10:25;20.10;99.90
27900;DHT22;15243;50.726;7.080;2022-07-06T13:12:52;20.20;99.90
27900;DHT22;15243;50.726;7.080;2022-07-06T13:15:20;20.50;99.90
27900;DHT22;15243;50.726;7.080;2022-07-06T13:17:47;20.50;99.90
27900;DHT22;15243;50.726;7.080;2022-07-06T13:20:14;21.00;99.90
27900;DHT22;15243;50.726;7.080;2022-07-06T13:22:44;21.10;99.90
27900;DHT22;15243;50.726;7.080;2022-07-06T13:25:10;21.00;99.90
27900;DHT22;15243;50.726;7.080;2022-07-06T13:27:40;20.50;99.90
27900;DHT22;15243;50.726;7.080;2022-07-06T13:30:07;20.80;99.90
27900;DHT22;15243;50.726;7.080;2022-07-06T13:32:34;20.70;99.90
27900;DHT22;15243;50.726;7.080;2022-07-06T13:35:01;20.70;99.90
27900;DHT22;15243;50.726;7.080;2022-07-06T13:37:28;20.40;99.90
27900;DHT22;15243;50.726;7.080;2022-07-06T13:39:55;20.70;99.90
27900;DHT22;15243;50.726;7.080;2022-07-06T13:42:22;20.40;99.90
27900;DHT22;15243;50.726;7.080;2022-07-06T13:44:49;19.90;99.90
27900;DHT22;15243;50.726;7.080;2022-07-06T13:47:16;20.50;99.90
27900;DHT22;15243;50.726;7.080;2022-07-06T13:49:43;20.60;99.90
27900;DHT22;15243;50.726;7.080;2022-07-06T13:52:14;20.40;99.90
27900;DHT22;15243;50.726;7.080;2022-07-06T13:54:41;20.90;99.90
27900;DHT22;15243;50.726;7.080;2022-07-06T13:57:08;21.30;99.90
27900;DHT22;15243;50.726;7.080;2022-07-06T13:59:35;21.30;99.90
27900;DHT22;15243;50.726;7.080;2022-07-06T14:02:02;21.30;99.90
27900;DHT22;15243;50.726;7.080;2022-07-06T14:04:29;21.30;99.90
27900;DHT22;15243;50.726;7.080;2022-07-06T14:06:56;21.50;99.90
27900;DHT22;15243;50.726;7.080;2022-07-06T14:09:23;21.30;99.90
27900;DHT22;15243;50.726;7.080;2022-07-06T14:11:50;20.60;99.90
27900;DHT22;15243;50.726;7.080;2022-07-06T14:14:17;20.80;99.90
27900;DHT22;15243;50.726;7.080;2022-07-06T14:16:44;21.40;99.90
27900;DHT22;15243;50.726;7.080;2022-07-06T14:19:11;21.70;99.90
27900;DHT22;15243;50.726;7.080;2022-07-06T14:21:44;22.40;99.90
27900;DHT22;15243;50.726;7.080;2022-07-06T14:24:12;22.50;99.90
27900;DHT22;15243;50.726;7.080;2022-07-06T14:26:39;21.80;99.90
27900;DHT22;15243;50.726;7.080;2022-07-06T14:29:06;22.00;99.90
27900;DHT22;15243;50.726;7.080;2022-07-06T14:31:33;22.00;99.90
27900;DHT22;15243;50.726;7.080;2022-07-06T14:34:00;21.90;99.90
27900;DHT22;15243;50.726;7.080;2022-07-06T14:36:27;21.60;99.90
27900;DHT22;15243;50.726;7.080;2022-07-06T14:38:54;21.20;99.90
27900;DHT22;15243;50.726;7.080;2022-07-06T14:41:21;21.00;99.90
27900;DHT22;15243;50.726;7.080;2022-07-06T14:43:48;21.60;99.90
27900;DHT22;15243;50.726;7.080;2022-07-06T14:46:16;21.90;99.90
27900;DHT22;15243;50.726;7.080;2022-07-06T14:48:43;21.60;99.90
27900;DHT22;15243;50.726;7.080;2022-07-06T14:51:10;21.80;99.90
27900;DHT22;15243;50.726;7.080;2022-07-06T14:53:36;21.50;99.90
27900;DHT22;15243;50.726;7.080;2022-07-06T14:56:04;21.70;99.90
27900;DHT22;15243;50.726;7.080;2022-07-06T14:58:31;21.70;99.90
27900;DHT22;15243;50.726;7.080;2022-07-06T15:00:58;21.70;99.90
27900;DHT22;15243;50.726;7.080;2022-07-06T15:03:26;21.20;99.90
27900;DHT22;15243;50.726;7.080;2022-07-06T15:05:54;21.30;99.90
27900;DHT22;15243;50.726;7.080;2022-07-06T15:08:21;21.50;99.90
27900;DHT22;15243;50.726;7.080;2022-07-06T15:10:48;21.80;99.90
27900;DHT22;15243;50.726;7.080;2022-07-06T15:13:16;22.10;99.90
27900;DHT22;15243;50.726;7.080;2022-07-06T15:15:43;21.80;99.90
27900;DHT22;15243;50.726;7.080;2022-07-06T15:18:22;22.00;99.90
27900;DHT22;15243;50.726;7.080;2022-07-06T15:20:50;22.40;99.90
27900;DHT22;15243;50.726;7.080;2022-07-06T15:23:17;21.80;99.90
27900;DHT22;15243;50.726;7.080;2022-07-06T15:25:44;21.70;99.90
27900;DHT22;15243;50.726;7.080;2022-07-06T15:28:20;22.30;99.90
27900;DHT22;15243;50.726;7.080;2022-07-06T15:30:47;22.40;99.90
27900;DHT22;15243;50.726;7.080;2022-07-06T15:33:14;22.30;99.90
27900;DHT22;15243;50.726;7.080;2022-07-06T15:35:41;22.00;99.90
27900;DHT22;15243;50.726;7.080;2022-07-06T15:38:08;22.20;99.90
27900;DHT22;15243;50.726;7.080;2022-07-06T15:40:35;22.10;99.90
27900;DHT22;15243;50.726;7.080;2022-07-06T15:43:07;22.30;99.90
27900;DHT22;15243;50.726;7.080;2022-07-06T15:45:34;22.40;99.80
27900;DHT22;15243;50.726;7.080;2022-07-06T15:48:03;22.00;98.40
27900;DHT22;15243;50.726;7.080;2022-07-06T15:50:30;21.80;98.00